Time;durP1;ratioP1;P1;durP2;ratioP2;P2;SDS_P1;SDS_P2;PMS_P1;PMS_P2;Temp;Humidity;BMP_temperature;BMP_pressure;BME280_temperature;BME280_humidity;BME280_pressure;Samples;Min_cycle;Max_cycle;Signal;HPM_P1;HPM_P2
2022/08/14 00:01:45;;;;;;;25.30;15.85;;;;;;;25.92;100.00;100271.41;5097057;28;20448;-78
2022/08/14 00:04:32;;;;;;;27.38;16.00;;;;;;;25.86;100.00;100266.59;5096667;28;20482;-79
2022/08/14 00:07:18;;;;;;;19.50;15.38;;;;;;;25.78;100.00;100263.72;5095996;28;20448;-78
2022/08/14 00:10:06;;;;;;;21.52;15.30;;;;;;;25.44;100.00;100253.34;5096424;28;20032;-78
2022/08/14 00:12:54;;;;;;;20.83;15.77;;;;;;;25.72;100.00;100253.50;5096903;28;20035;-78
2022/08/14 00:15:43;;;;;;;20.15;15.27;;;;;;;25.73;100.00;100265.97;5081177;28;20372;-79
2022/08/14 00:18:28;;;;;;;23.13;14.57;;;;;;;25.63;100.00;100261.53;5095994;28;20107;-79
2022/08/14 00:21:14;;;;;;;23.83;15.63;;;;;;;25.94;100.00;100257.88;5096063;28;20051;-78
2022/08/14 00:24:00;;;;;;;23.52;15.63;;;;;;;25.69;100.00;100258.28;5095881;28;20425;-78
2022/08/14 00:26:46;;;;;;;22.70;15.32;;;;;;;25.95;100.00;100254.19;5095023;28;20024;-79
2022/08/14 00:29:32;;;;;;;20.35;15.40;;;;;;;25.83;100.00;100258.78;5095408;28;20020;-78
2022/08/14 00:32:17;;;;;;;20.77;15.00;;;;;;;26.01;100.00;100262.59;5094850;28;20028;-79
2022/08/14 00:35:06;;;;;;;21.20;15.50;;;;;;;25.92;100.00;100268.72;5096176;28;20359;-78
2022/08/14 00:37:52;;;;;;;19.23;13.80;;;;;;;25.78;100.00;100265.53;5080790;28;20111;-79
2022/08/14 00:40:37;;;;;;;17.90;13.63;;;;;;;26.17;100.00;100249.50;5094533;28;20024;-78
2022/08/14 00:43:23;;;;;;;21.17;13.18;;;;;;;26.31;100.00;100250.94;5094609;28;20031;-78
2022/08/14 00:46:10;;;;;;;16.63;11.90;;;;;;;25.90;100.00;100249.22;5095419;28;20107;-78
2022/08/14 00:48:56;;;;;;;17.13;11.88;;;;;;;25.90;100.00;100254.59;5094991;28;20034;-78
2022/08/14 00:51:44;;;;;;;14.50;11.75;;;;;;;25.55;100.00;100256.81;5095470;28;20055;-78
2022/08/14 00:54:30;;;;;;;16.80;11.50;;;;;;;25.79;100.00;100252.00;5095152;28;20476;-77
2022/08/14 00:57:17;;;;;;;17.17;11.25;;;;;;;25.45;100.00;100253.22;5095596;28;20097;-78
2022/08/14 01:00:13;;;;;;;14.77;11.63;;;;;;;25.66;100.00;100259.41;5095195;28;20042;-78
2022/08/14 01:03:00;;;;;;;15.05;10.95;;;;;;;25.40;100.00;100263.47;5080555;28;20469;-77
2022/08/14 01:05:49;;;;;;;19.98;11.52;;;;;;;25.11;100.00;100256.19;5094492;28;20126;-78
2022/08/14 01:08:37;;;;;;;15.98;10.90;;;;;;;25.19;100.00;100254.56;5095767;28;20053;-79
2022/08/14 01:11:24;;;;;;;17.65;11.73;;;;;;;25.22;100.00;100270.38;5095068;28;20035;-78
2022/08/14 01:14:10;;;;;;;16.10;11.00;;;;;;;25.01;100.00;100268.66;5094787;28;20035;-79
2022/08/14 01:16:56;;;;;;;18.20;11.27;;;;;;;24.96;100.00;100273.56;5095948;28;20448;-77
2022/08/14 01:22:48;;;;;;;15.20;10.73;;;;;;;25.26;100.00;100279.00;5095704;28;20067;-77
2022/08/14 01:25:36;;;;;;;15.38;11.50;;;;;;;24.92;100.00;100275.66;5094330;28;20024;-78
2022/08/14 01:28:23;;;;;;;12.57;10.55;;;;;;;24.95;100.00;100277.22;5093870;28;20040;-78
2022/08/14 01:31:14;;;;;;;14.23;10.27;;;;;;;25.09;100.00;100272.41;5098289;28;20427;-78
2022/08/14 01:34:03;;;;;;;15.25;11.27;;;;;;;24.58;100.00;100273.16;5097818;28;20415;-78
2022/08/14 01:36:49;;;;;;;16.55;10.38;;;;;;;24.76;100.00;100266.34;5099697;28;20024;-77
2022/08/14 01:39:35;;;;;;;12.63;11.02;;;;;;;25.24;100.00;100268.41;5098629;28;20119;-78
2022/08/14 01:42:21;;;;;;;14.38;10.98;;;;;;;24.93;100.00;100273.81;5099560;28;20024;-78
2022/08/14 01:45:11;;;;;;;14.13;10.40;;;;;;;25.00;100.00;100281.19;5098963;28;20024;-78
2022/08/14 01:47:57;;;;;;;12.50;10.05;;;;;;;24.80;100.00;100281.19;5099225;28;20106;-78
2022/08/14 01:50:43;;;;;;;13.80;10.65;;;;;;;24.81;100.00;100280.19;5098911;28;20055;-77
2022/08/14 01:53:29;;;;;;;13.15;10.02;;;;;;;24.59;100.00;100286.44;5098588;28;20373;-78
2022/08/14 01:56:17;;;;;;;14.23;10.48;;;;;;;24.70;100.00;100280.22;5099014;28;20027;-78
2022/08/14 01:59:04;;;;;;;13.20;9.90;;;;;;;24.68;100.00;100274.16;5098830;28;20034;-78
2022/08/14 02:01:52;;;;;;;13.23;10.52;;;;;;;24.56;100.00;100283.16;5083056;28;20460;-78
2022/08/14 02:04:38;;;;;;;11.85;9.93;;;;;;;24.83;100.00;100273.72;5097890;28;20081;-78
2022/08/14 02:07:24;;;;;;;11.25;9.07;;;;;;;24.88;100.00;100266.19;5097892;28;20110;-79
2022/08/14 02:10:12;;;;;;;11.75;9.73;;;;;;;25.03;100.00;100269.41;5098952;28;20024;-79
2022/08/14 02:12:57;;;;;;;12.82;9.90;;;;;;;24.44;100.00;100277.00;5097818;28;20035;-80
2022/08/14 02:15:44;;;;;;;14.85;9.95;;;;;;;24.42;100.00;100278.06;5097036;28;20490;-78
2022/08/14 02:18:30;;;;;;;11.40;9.65;;;;;;;24.81;100.00;100270.34;5098868;28;20406;-78
2022/08/14 02:21:17;;;;;;;12.32;9.80;;;;;;;24.72;100.00;100271.09;5083017;28;20400;-78
2022/08/14 02:24:04;;;;;;;13.55;9.82;;;;;;;24.38;100.00;100261.41;5097901;28;20036;-78
2022/08/14 02:26:52;;;;;;;11.43;9.48;;;;;;;24.04;100.00;100264.25;5098721;28;20409;-78
2022/08/14 02:29:39;;;;;;;11.13;9.40;;;;;;;24.62;100.00;100270.16;5097289;28;20028;-78
2022/08/14 02:32:25;;;;;;;12.73;9.88;;;;;;;24.68;100.00;100271.47;5082913;28;20050;-77
2022/08/14 02:35:17;;;;;;;13.52;9.95;;;;;;;24.16;100.00;100265.94;5098437;28;20123;-78
2022/08/14 02:38:03;;;;;;;11.77;9.98;;;;;;;24.40;100.00;100280.03;5098394;28;20083;-79
2022/08/14 02:40:49;;;;;;;10.60;9.27;;;;;;;24.32;100.00;100275.31;5084019;28;20020;-78
2022/08/14 02:43:37;;;;;;;12.95;9.75;;;;;;;23.69;100.00;100279.53;5098511;28;20355;-78
2022/08/14 02:46:23;;;;;;;12.15;9.82;;;;;;;24.11;100.00;100276.19;5097719;28;20107;-78
2022/08/14 02:49:09;;;;;;;12.45;9.98;;;;;;;23.96;100.00;100277.38;5098259;28;20085;-79
2022/08/14 02:51:56;;;;;;;11.38;9.98;;;;;;;23.54;100.00;100275.38;5097870;28;20030;-79
2022/08/14 02:54:42;;;;;;;10.90;9.80;;;;;;;24.20;100.00;100278.97;5098545;28;20127;-78
2022/08/14 02:57:28;;;;;;;10.73;9.57;;;;;;;23.62;100.00;100270.28;5097166;28;20112;-78
2022/08/14 03:00:15;;;;;;;11.10;9.60;;;;;;;23.70;100.00;100270.53;5083229;28;20032;-77
2022/08/14 03:03:01;;;;;;;13.10;10.20;;;;;;;24.02;100.00;100272.41;5097320;28;20427;-78
2022/08/14 03:05:50;;;;;;;12.45;9.50;;;;;;;24.05;100.00;100271.28;5098079;28;20111;-78
2022/08/14 03:08:37;;;;;;;11.77;9.18;;;;;;;24.18;100.00;100264.00;5097047;28;20072;-79
2022/08/14 03:11:25;;;;;;;13.55;9.68;;;;;;;24.20;100.00;100267.41;5097131;28;20436;-78
2022/08/14 03:14:11;;;;;;;13.13;9.65;;;;;;;24.17;100.00;100273.00;5096546;28;20523;-77
2022/08/14 03:16:57;;;;;;;12.38;10.52;;;;;;;23.98;100.00;100270.09;5097928;28;20024;-79
2022/08/14 03:19:43;;;;;;;12.30;9.77;;;;;;;23.91;100.00;100271.53;5096701;28;20111;-79
2022/08/14 03:22:28;;;;;;;11.80;9.48;;;;;;;23.94;100.00;100274.00;5097473;28;20016;-77
2022/08/14 03:25:14;;;;;;;17.08;10.35;;;;;;;24.20;100.00;100278.97;5095307;28;20034;-78
2022/08/14 03:28:08;;;;;;;11.98;9.68;;;;;;;24.04;100.00;100277.63;5095849;28;20125;-79
2022/08/14 03:30:57;;;;;;;13.15;10.32;;;;;;;23.83;100.00;100273.94;5096937;28;20020;-78
2022/08/14 03:33:43;;;;;;;12.68;9.73;;;;;;;24.08;100.00;100279.09;5096590;28;20452;-78
2022/08/14 03:36:31;;;;;;;13.10;9.85;;;;;;;24.25;100.00;100281.25;5082162;28;20062;-79
2022/08/14 03:39:17;;;;;;;13.27;9.93;;;;;;;23.98;100.00;100272.78;5097222;28;20043;-78
2022/08/14 03:42:03;;;;;;;12.20;9.07;;;;;;;24.37;100.00;100280.28;5097188;28;20032;-78
2022/08/14 03:44:50;;;;;;;13.60;9.82;;;;;;;24.32;100.00;100279.78;5097085;28;20042;-78
2022/08/14 03:47:39;;;;;;;11.98;9.68;;;;;;;24.46;100.00;100282.19;5095602;28;20173;-78
2022/08/14 03:50:26;;;;;;;10.90;9.40;;;;;;;24.62;100.00;100280.84;5096352;28;20024;-78
2022/08/14 03:53:13;;;;;;;10.32;9.20;;;;;;;24.36;100.00;100282.13;5095395;28;20039;-78
2022/08/14 03:55:58;;;;;;;13.55;10.10;;;;;;;24.36;100.00;100282.13;5080903;28;20341;-78
2022/08/14 03:58:47;;;;;;;10.43;9.30;;;;;;;24.11;100.00;100290.38;5096219;28;20024;-79
2022/08/14 04:01:33;;;;;;;12.25;9.63;;;;;;;24.01;100.00;100284.09;5096219;28;20503;-77
2022/08/14 04:04:18;;;;;;;12.63;10.23;;;;;;;24.20;100.00;100284.31;5094895;28;20023;-78
2022/08/14 04:07:04;;;;;;;13.43;10.77;;;;;;;24.23;100.00;100293.94;5095711;28;20025;-78
2022/08/14 04:09:50;;;;;;;15.10;9.63;;;;;;;24.20;100.00;100287.00;5096358;28;20038;-78
2022/08/14 04:12:36;;;;;;;17.63;10.80;;;;;;;24.65;100.00;100287.78;5096265;28;20028;-79
2022/08/14 04:15:23;;;;;;;16.65;9.88;;;;;;;24.60;100.00;100290.84;5096612;28;20028;-79
2022/08/14 04:18:08;;;;;;;12.45;9.98;;;;;;;24.38;100.00;100292.69;5096685;28;20103;-78
2022/08/14 04:20:56;;;;;;;13.57;10.15;;;;;;;23.80;100.00;100290.25;5095304;28;20124;-78
2022/08/14 04:23:44;;;;;;;13.57;10.52;;;;;;;24.20;100.00;100291.50;5081171;28;20024;-80
2022/08/14 04:26:31;;;;;;;15.27;10.18;;;;;;;24.00;100.00;100285.06;5093999;28;20015;-77
2022/08/14 04:29:17;;;;;;;11.60;10.05;;;;;;;24.27;100.00;100290.03;5096263;28;20055;-79
2022/08/14 04:32:06;;;;;;;11.90;10.18;;;;;;;24.19;100.00;100290.63;5096977;28;20024;-78
2022/08/14 04:34:53;;;;;;;10.93;9.77;;;;;;;24.20;100.00;100286.13;5094799;28;20036;-79
2022/08/14 04:43:47;;;;;;;12.27;9.85;;;;;;;24.78;100.00;100285.81;5099467;28;20038;-79
2022/08/14 04:46:34;;;;;;;15.93;10.10;;;;;;;25.01;100.00;100276.69;5097170;28;20367;-76
2022/08/14 04:49:21;;;;;;;14.00;10.52;;;;;;;24.92;100.00;100278.34;5095281;28;20028;-76
2022/08/14 04:52:07;;;;;;;13.07;10.32;;;;;;;25.27;100.00;100273.53;5066458;28;20036;-76
2022/08/14 04:54:53;;;;;;;12.52;9.68;;;;;;;25.59;100.00;100278.88;5093692;28;20496;-76
2022/08/14 04:57:38;;;;;;;12.15;10.82;;;;;;;24.65;100.00;100279.75;5078544;28;20085;-76
2022/08/14 05:00:26;;;;;;;11.75;10.07;;;;;;;24.59;100.00;100274.88;5094856;28;20097;-76
2022/08/14 05:03:11;;;;;;;15.45;10.30;;;;;;;24.90;100.00;100271.38;5094049;28;20028;-76
2022/08/14 05:06:00;;;;;;;12.55;10.70;;;;;;;25.18;100.00;100268.09;5094459;28;20111;-76
2022/08/14 05:08:46;;;;;;;13.27;10.45;;;;;;;25.07;100.00;100257.44;5094510;28;20511;-75
2022/08/14 05:11:33;;;;;;;14.15;10.73;;;;;;;25.24;100.00;100270.25;5095147;28;20035;-76
2022/08/14 05:14:21;;;;;;;16.85;11.10;;;;;;;24.72;100.00;100272.91;5094198;28;20501;-76
2022/08/14 05:17:07;;;;;;;14.18;10.77;;;;;;;24.89;100.00;100264.31;5093877;28;20342;-76
2022/08/14 05:19:53;;;;;;;13.15;10.93;;;;;;;25.40;100.00;100268.84;5080197;28;20039;-76
2022/08/14 05:22:39;;;;;;;13.25;11.00;;;;;;;25.26;100.00;100266.47;5094058;28;20096;-76
2022/08/14 05:25:25;;;;;;;16.40;11.20;;;;;;;25.53;100.00;100266.84;5093830;28;20024;-76
2022/08/14 05:28:17;;;;;;;18.23;11.88;;;;;;;25.48;100.00;100270.88;5093126;28;20025;-75
2022/08/14 05:31:05;;;;;;;15.23;10.82;;;;;;;25.59;100.00;100262.78;5094857;28;20371;-76
2022/08/14 05:33:52;;;;;;;17.65;11.40;;;;;;;25.61;100.00;100263.47;5079818;28;20460;-76
2022/08/14 05:36:38;;;;;;;13.65;11.27;;;;;;;25.85;100.00;100258.66;5079544;28;20425;-77
2022/08/14 05:39:24;;;;;;;15.18;11.18;;;;;;;25.31;100.00;100264.28;5092992;28;20038;-75
2022/08/14 05:42:09;;;;;;;16.55;11.75;;;;;;;25.10;100.00;100257.16;5094092;28;20055;-76
2022/08/14 05:44:55;;;;;;;15.07;12.05;;;;;;;25.73;100.00;100257.03;5093626;28;20024;-75
2022/08/14 05:47:41;;;;;;;14.10;11.65;;;;;;;25.98;100.00;100262.00;5094812;28;20028;-76
2022/08/14 05:50:28;;;;;;;13.57;11.75;;;;;;;25.97;100.00;100262.97;5078733;28;20453;-76
2022/08/14 05:53:13;;;;;;;18.55;11.23;;;;;;;26.37;100.00;100261.97;5094382;28;20032;-75
2022/08/14 05:55:59;;;;;;;14.13;11.90;;;;;;;26.19;100.00;100263.63;5084359;28;20472;-75
2022/08/14 05:58:45;;;;;;;13.00;11.60;;;;;;;26.41;100.00;100259.88;5099314;28;20024;-75
2022/08/14 06:01:31;;;;;;;13.73;11.88;;;;;;;26.33;100.00;100257.03;5098238;28;20048;-75
2022/08/14 06:04:16;;;;;;;16.70;12.75;;;;;;;26.06;100.00;100260.34;5100014;28;20016;-76
2022/08/14 06:07:02;;;;;;;13.85;12.05;;;;;;;26.02;100.00;100258.91;5099062;28;20129;-75
2022/08/14 06:09:48;;;;;;;14.88;11.63;;;;;;;25.99;100.00;100258.31;5098326;28;20360;-76
2022/08/14 06:12:34;;;;;;;13.73;12.02;;;;;;;25.86;100.00;100250.47;5098501;28;20028;-76
2022/08/14 06:15:20;;;;;;;18.65;12.82;;;;;;;26.43;100.00;100244.47;5097543;28;20487;-75
2022/08/14 06:18:06;;;;;;;15.40;12.48;;;;;;;26.04;100.00;100253.41;5100797;28;20060;-75
2022/08/14 06:20:53;;;;;;;16.67;12.13;;;;;;;26.35;100.00;100245.16;5098815;28;20391;-76
2022/08/14 06:23:38;;;;;;;14.65;12.60;;;;;;;26.64;100.00;100246.09;5096712;28;20059;-76
2022/08/14 06:26:24;;;;;;;15.30;12.15;;;;;;;26.97;100.00;100239.47;5096433;28;20020;-76
2022/08/14 06:29:10;;;;;;;16.67;11.77;;;;;;;26.88;100.00;100232.25;5096525;28;20024;-76
2022/08/14 06:31:56;;;;;;;17.88;12.75;;;;;;;27.06;100.00;100241.28;5096224;28;20024;-75
2022/08/14 06:34:42;;;;;;;16.85;12.73;;;;;;;27.26;100.00;100243.00;5095982;28;20039;-76
2022/08/14 06:37:27;;;;;;;16.67;12.45;;;;;;;27.53;100.00;100243.94;5082088;28;20016;-76
2022/08/14 06:40:17;;;;;;;17.88;13.15;;;;;;;27.62;100.00;100247.59;5096820;28;20032;-77
2022/08/14 06:43:08;;;;;;;19.52;12.75;;;;;;;27.56;100.00;100241.97;5095854;28;20042;-76
2022/08/14 06:45:54;;;;;;;17.58;13.18;;;;;;;27.57;100.00;100241.81;5096857;28;20039;-76
2022/08/14 06:48:39;;;;;;;21.63;13.65;;;;;;;27.69;100.00;100237.09;5096323;28;20448;-76
2022/08/14 06:51:25;;;;;;;22.98;12.93;;;;;;;28.15;100.00;100242.44;5095904;28;20042;-75
2022/08/14 06:54:12;;;;;;;24.27;13.55;;;;;;;27.87;100.00;100240.72;5096249;28;20063;-76
2022/08/14 06:56:58;;;;;;;20.63;12.50;;;;;;;27.80;100.00;100232.38;5081426;28;20085;-76
2022/08/14 06:59:44;;;;;;;23.27;14.02;;;;;;;28.32;100.00;100229.03;5096172;28;20035;-75
2022/08/14 07:05:49;;;;;;;22.10;14.20;;;;;;;28.40;100.00;100229.13;5096131;28;20020;-76
2022/08/14 07:08:35;;;;;;;21.42;14.32;;;;;;;28.85;100.00;100229.94;5096929;28;20341;-75
2022/08/14 07:11:21;;;;;;;20.90;14.15;;;;;;;28.59;100.00;100229.03;5096387;28;20106;-76
2022/08/14 07:14:07;;;;;;;22.65;14.07;;;;;;;28.20;100.00;100240.19;5096674;28;20031;-75
2022/08/14 07:16:53;;;;;;;20.40;14.82;;;;;;;28.05;100.00;100233.56;5094979;28;20032;-76
2022/08/14 07:19:39;;;;;;;25.33;14.65;;;;;;;28.58;100.00;100230.03;5096751;28;20038;-75
2022/08/14 07:22:25;;;;;;;21.90;14.10;;;;;;;28.33;100.00;100230.72;5096137;28;20123;-76
2022/08/14 07:25:11;;;;;;;20.13;14.40;;;;;;;29.25;100.00;100232.19;5095752;28;20085;-76
2022/08/14 07:27:56;;;;;;;20.92;13.57;;;;;;;28.49;100.00;100232.78;5095019;28;20044;-77
2022/08/14 07:30:43;;;;;;;23.73;14.02;;;;;;;29.15;100.00;100226.03;5095709;28;20020;-75
2022/08/14 07:33:39;;;;;;;17.45;13.10;;;;;;;28.93;100.00;100227.31;5080539;28;20024;-75
2022/08/14 07:36:26;;;;;;;18.25;13.73;;;;;;;29.44;100.00;100230.13;5095483;28;20394;-76
2022/08/14 07:39:12;;;;;;;21.98;13.32;;;;;;;29.35;100.00;100232.94;5094207;28;20118;-75
2022/08/14 07:41:57;;;;;;;21.55;13.98;;;;;;;29.33;100.00;100225.00;5096033;28;20016;-75
2022/08/14 07:44:43;;;;;;;19.73;13.77;;;;;;;29.70;100.00;100228.28;5095956;28;20019;-76
2022/08/14 07:47:29;;;;;;;19.05;13.88;;;;;;;29.10;100.00;100217.56;5095458;28;20028;-76
2022/08/14 07:50:16;;;;;;;20.60;14.00;;;;;;;29.54;100.00;100225.47;5096274;28;20111;-76
2022/08/14 07:53:02;;;;;;;21.52;14.70;;;;;;;29.56;100.00;100222.59;5080314;28;20040;-75
2022/08/14 07:55:49;;;;;;;18.92;14.27;;;;;;;29.78;100.00;100230.22;5094898;28;20048;-76
2022/08/14 07:58:37;;;;;;;23.40;13.75;;;;;;;29.98;100.00;100226.28;5095742;28;20024;-76
2022/08/14 08:01:25;;;;;;;23.42;14.50;;;;;;;29.86;100.00;100230.25;5095343;28;20468;-76
2022/08/14 08:04:11;;;;;;;20.42;14.65;;;;;;;30.20;100.00;100236.50;5095368;28;20036;-77
2022/08/14 08:06:59;;;;;;;19.48;14.68;;;;;;;30.66;98.29;100236.00;5094543;28;20118;-77
2022/08/14 08:09:53;;;;;;;24.15;17.02;;;;;;;30.24;100.00;100229.78;5095459;28;20028;-77
2022/08/14 08:12:40;;;;;;;21.35;14.93;;;;;;;29.85;100.00;100228.56;5094580;28;20093;-76
2022/08/14 08:15:28;;;;;;;20.75;14.07;;;;;;;30.06;100.00;100227.13;5079069;28;20024;-76
2022/08/14 08:18:16;;;;;;;16.80;13.73;;;;;;;30.18;100.00;100220.47;5079679;28;20023;-75
2022/08/14 08:21:02;;;;;;;20.90;14.68;;;;;;;31.07;97.14;100232.34;5095309;28;20031;-76
2022/08/14 08:23:48;;;;;;;23.20;14.85;;;;;;;30.76;98.05;100223.19;5095506;28;20028;-76
2022/08/14 08:26:34;;;;;;;21.90;15.02;;;;;;;30.93;95.71;100230.28;5093908;28;20355;-75
2022/08/14 08:29:23;;;;;;;24.13;14.43;;;;;;;30.72;96.71;100222.69;5080397;28;20021;-76
2022/08/14 08:32:09;;;;;;;22.45;15.20;;;;;;;30.72;97.12;100214.56;5094326;28;20341;-76
2022/08/14 08:34:54;;;;;;;19.45;15.00;;;;;;;30.78;96.97;100210.34;5095148;28;20364;-75
2022/08/14 08:37:40;;;;;;;24.27;15.38;;;;;;;30.56;98.50;100203.69;5095497;28;20031;-75
2022/08/14 08:40:38;;;;;;;25.52;16.30;;;;;;;30.49;97.83;100201.78;5093718;28;20039;-77
2022/08/14 08:43:34;;;;;;;19.83;14.40;;;;;;;31.10;95.13;100205.78;5095410;28;20032;-77
2022/08/14 08:46:20;;;;;;;29.35;18.05;;;;;;;31.52;93.94;100197.47;5094683;28;20142;-75
2022/08/14 08:49:06;;;;;;;22.77;14.85;;;;;;;32.37;87.81;100189.38;5093955;28;20523;-76
2022/08/14 08:52:03;;;;;;;19.27;14.10;;;;;;;31.80;90.77;100187.94;5093518;28;20028;-76
2022/08/14 08:54:53;;;;;;;21.85;14.48;;;;;;;31.85;91.41;100182.00;5094640;28;20145;-76
2022/08/14 08:57:39;;;;;;;19.13;14.82;;;;;;;31.96;89.16;100182.44;5114979;28;20080;-76
2022/08/14 09:00:28;;;;;;;20.08;14.48;;;;;;;31.72;91.53;100171.66;5100115;28;20020;-76
2022/08/14 09:03:17;;;;;;;21.58;16.73;;;;;;;31.96;90.22;100176.19;5113951;28;20033;-76
2022/08/14 09:06:04;;;;;;;21.30;14.80;;;;;;;32.68;85.91;100156.78;5101120;28;20030;-76
2022/08/14 09:08:50;;;;;;;19.50;13.60;;;;;;;31.85;89.76;100160.31;5113915;28;20194;-75
2022/08/14 09:11:36;;;;;;;19.02;13.45;;;;;;;31.66;91.69;100152.56;5115040;28;20474;-76
2022/08/14 09:14:23;;;;;;;20.25;14.20;;;;;;;31.77;91.06;100163.06;5114347;28;20114;-76
2022/08/14 09:17:09;;;;;;;16.63;12.77;;;;;;;32.08;88.72;100158.50;5113656;28;20031;-76
2022/08/14 09:19:56;;;;;;;19.48;13.65;;;;;;;32.06;89.91;100149.72;5114786;28;20015;-76
2022/08/14 09:22:42;;;;;;;23.50;12.10;;;;;;;30.85;97.19;100154.53;5113899;28;20035;-77
2022/08/14 09:25:28;;;;;;;19.77;12.27;;;;;;;30.26;100.00;100150.22;5113667;28;20031;-75
2022/08/14 09:28:15;;;;;;;31.95;12.55;;;;;;;29.15;100.00;100150.47;5099635;28;20024;-76
2022/08/14 09:31:02;;;;;;;18.73;10.65;;;;;;;28.99;100.00;100139.53;5100142;28;20023;-76
2022/08/14 09:34:04;;;;;;;22.48;9.30;;;;;;;28.83;92.96;100152.91;5113443;28;20041;-75
2022/08/14 09:36:56;;;;;;;21.63;8.20;;;;;;;28.24;94.29;100147.25;5114940;28;20106;-76
2022/08/14 09:39:56;;;;;;;16.73;6.70;;;;;;;28.02;87.41;100136.91;5098374;28;20054;-76
2022/08/14 09:42:57;;;;;;;16.48;5.80;;;;;;;27.91;83.14;100113.72;5113567;28;20084;-76
2022/08/14 09:45:48;;;;;;;15.57;7.82;;;;;;;28.50;82.42;100092.47;5098941;28;20038;-75
2022/08/14 09:48:36;;;;;;;9.73;5.30;;;;;;;28.76;76.68;100104.13;5113519;28;20092;-75
2022/08/14 09:51:23;;;;;;;8.15;5.43;;;;;;;29.06;74.07;100098.31;5101009;28;20024;-76
2022/08/14 09:54:10;;;;;;;11.27;5.82;;;;;;;29.20;75.23;100097.72;5108303;28;20052;-76
2022/08/14 09:56:55;;;;;;;8.38;5.53;;;;;;;29.11;75.60;100087.91;5096828;28;20020;-76
2022/08/14 09:59:45;;;;;;;10.85;5.97;;;;;;;29.49;80.61;100087.41;5098490;28;20456;-77
2022/08/14 10:02:32;;;;;;;11.00;6.30;;;;;;;29.14;98.10;100095.69;5082994;28;20102;-76
2022/08/14 10:05:32;;;;;;;9.18;6.18;;;;;;;28.38;100.00;100096.38;5096938;28;20016;-76
2022/08/14 10:08:20;;;;;;;9.77;6.10;;;;;;;28.56;100.00;100099.09;5097852;28;20103;-76
2022/08/14 10:11:34;;;;;;;13.25;6.57;;;;;;;28.21;100.00;100094.50;5096682;28;20032;-75
2022/08/14 10:14:25;;;;;;;10.50;6.90;;;;;;;28.53;100.00;100102.91;5097581;28;20118;-76
2022/08/14 10:17:25;;;;;;;15.52;7.65;;;;;;;28.75;100.00;100104.28;5096894;28;20017;-76
2022/08/14 10:20:14;;;;;;;9.27;6.20;;;;;;;29.40;100.00;100107.28;5096919;28;20035;-75
2022/08/14 10:23:14;;;;;;;8.85;6.75;;;;;;;29.22;100.00;100094.88;5097725;28;20031;-76
2022/08/14 10:26:06;;;;;;;11.40;6.72;;;;;;;29.21;100.00;100102.09;5095977;28;20047;-76
2022/08/14 10:28:54;;;;;;;7.97;6.18;;;;;;;28.97;98.94;100103.78;5099124;28;20040;-78
2022/08/14 10:31:41;;;;;;;7.13;5.57;;;;;;;29.11;92.74;100112.19;5084295;28;20060;-77
2022/08/14 10:34:35;;;;;;;11.93;6.00;;;;;;;29.11;94.00;100135.59;5100036;28;20038;-78
2022/08/14 10:37:21;;;;;;;11.65;6.50;;;;;;;29.02;96.38;100134.72;5100232;28;20027;-78
2022/08/14 10:40:07;;;;;;;8.60;6.28;;;;;;;29.39;96.02;100138.00;5098399;28;20024;-78
2022/08/14 10:42:54;;;;;;;10.20;6.72;;;;;;;29.25;100.00;100130.47;5099895;28;20024;-78
2022/08/14 10:45:40;;;;;;;11.13;8.98;;;;;;;28.75;100.00;100140.19;5097614;28;20080;-77
2022/08/14 10:48:26;;;;;;;14.55;9.05;;;;;;;29.15;100.00;100129.75;5083509;28;20130;-78
2022/08/14 10:51:22;;;;;;;12.63;9.05;;;;;;;28.97;100.00;100133.47;5099041;28;20550;-78
2022/08/14 10:54:09;;;;;;;11.80;8.13;;;;;;;29.23;100.00;100124.41;5098365;28;20392;-79
2022/08/14 10:57:17;;;;;;;11.57;7.53;;;;;;;29.48;96.10;100126.22;5083195;28;20028;-77
2022/08/14 11:00:16;;;;;;;8.57;7.13;;;;;;;29.10;96.52;100126.69;5097956;28;20032;-80
2022/08/14 11:03:08;;;;;;;9.75;6.78;;;;;;;29.45;94.07;100123.00;5095251;28;20333;-80
2022/08/14 11:05:54;;;;;;;11.57;7.22;;;;;;;29.52;98.71;100124.88;5096239;28;20024;-80
2022/08/14 11:08:40;;;;;;;7.22;5.90;;;;;;;29.15;96.86;100127.03;5096451;28;20391;-79
2022/08/14 11:11:26;;;;;;;9.10;5.53;;;;;;;29.04;94.14;100123.75;5097177;28;20020;-79
2022/08/14 11:14:15;;;;;;;7.97;5.80;;;;;;;28.84;97.43;100111.44;5097290;28;20456;-80
2022/08/14 11:17:01;;;;;;;10.48;6.20;;;;;;;28.76;100.00;100104.13;5081789;28;20095;-80
2022/08/14 11:19:48;;;;;;;9.02;6.90;;;;;;;28.79;100.00;100108.38;5082202;28;20024;-80
2022/08/14 11:22:38;;;;;;;11.07;6.95;;;;;;;28.72;100.00;100094.66;5081984;28;20134;-80
2022/08/14 11:25:28;;;;;;;10.82;7.50;;;;;;;28.60;100.00;100095.91;5095899;28;20464;-79
2022/08/14 11:28:15;;;;;;;12.68;7.50;;;;;;;28.67;100.00;100094.28;5081248;28;20117;-79
2022/08/14 11:31:02;;;;;;;10.35;7.70;;;;;;;28.34;100.00;100088.75;5097268;28;20069;-80
2022/08/14 11:33:56;;;;;;;9.35;7.90;;;;;;;28.47;100.00;100092.78;5096830;28;20099;-79
2022/08/14 11:36:43;;;;;;;10.43;8.13;;;;;;;28.41;100.00;100093.38;5095941;28;20020;-80
2022/08/14 11:39:28;;;;;;;15.43;8.00;;;;;;;28.62;100.00;100085.84;5095843;28;20028;-80
2022/08/14 11:42:25;;;;;;;11.40;8.05;;;;;;;28.59;100.00;100078.06;5095658;28;20016;-80
2022/08/14 11:45:11;;;;;;;16.10;9.00;;;;;;;28.15;100.00;100073.56;5096028;28;20115;-80
2022/08/14 11:47:57;;;;;;;14.77;8.55;;;;;;;27.92;100.00;100084.97;5081703;28;20040;-79
2022/08/14 11:50:43;;;;;;;15.05;8.90;;;;;;;27.85;100.00;100087.41;5095416;28;20085;-80
2022/08/14 11:53:30;;;;;;;15.68;8.98;;;;;;;27.94;100.00;100099.97;5094693;28;20040;-79
2022/08/14 11:56:16;;;;;;;19.55;9.68;;;;;;;27.33;100.00;100115.81;5095814;28;20031;-80
2022/08/14 11:59:04;;;;;;;14.25;9.88;;;;;;;27.09;100.00;100114.59;5096216;28;20016;-80
2022/08/14 12:01:50;;;;;;;16.55;10.45;;;;;;;26.96;100.00;100119.44;5095507;28;20035;-80
2022/08/14 12:04:47;;;;;;;15.40;10.25;;;;;;;26.77;100.00;100122.16;5095192;28;20048;-80
2022/08/14 12:07:33;;;;;;;14.80;10.52;;;;;;;26.60;100.00;100112.16;5095210;28;20024;-80
2022/08/14 12:10:19;;;;;;;12.32;9.50;;;;;;;26.57;100.00;100117.78;5096186;28;20031;-81
2022/08/14 12:13:13;;;;;;;12.95;9.27;;;;;;;26.32;100.00;100143.34;5095974;28;20070;-80
2022/08/14 12:16:01;;;;;;;12.90;8.90;;;;;;;26.06;100.00;100177.09;5094202;28;20032;-80
2022/08/14 12:18:48;;;;;;;13.68;8.60;;;;;;;25.67;100.00;100210.13;5096071;28;20035;-80
2022/08/14 12:21:34;;;;;;;9.77;8.07;;;;;;;25.62;100.00;100241.03;5095122;28;20071;-79
2022/08/14 12:24:27;;;;;;;13.88;8.52;;;;;;;26.12;100.00;100258.94;5094590;28;20031;-79
2022/08/14 12:27:13;;;;;;;9.75;8.23;;;;;;;25.93;100.00;100257.00;5095325;28;20078;-79
2022/08/14 12:29:59;;;;;;;14.77;10.07;;;;;;;25.51;100.00;100265.25;5094331;28;20043;-79
2022/08/14 12:32:47;;;;;;;17.55;8.27;;;;;;;24.20;100.00;100275.44;5080876;28;20421;-79
2022/08/14 12:35:44;;;;;;;17.73;9.63;;;;;;;23.62;100.00;100260.44;5095017;28;20062;-80
2022/08/14 12:38:41;;;;;;;21.45;12.00;;;;;;;23.62;100.00;100243.53;5095361;28;20031;-81
2022/08/14 12:41:34;;;;;;;26.48;14.82;;;;;;;23.61;100.00;100239.13;5094371;28;20020;-80
2022/08/14 12:44:34;;;;;;;27.20;15.88;;;;;;;23.49;100.00;100224.91;5092948;28;20031;-79
2022/08/14 12:47:29;;;;;;;25.45;15.20;;;;;;;23.49;100.00;100232.94;5095102;28;20039;-79
2022/08/14 12:50:16;;;;;;;23.60;15.45;;;;;;;23.10;100.00;100254.69;5093698;28;20107;-80
2022/08/14 12:53:02;;;;;;;21.65;14.68;;;;;;;23.12;100.00;100277.66;5093522;28;20035;-78